sensor_id;sensor_type;location;lat;lon;timestamp;P1;durP1;ratioP1;P2;durP2;ratioP2
38779;SDS011;29273;49.962;9.768;2022-08-20T00:02:22;1.50;;;1.40;;
38779;SDS011;29273;49.962;9.768;2022-08-20T00:04:49;1.30;;;1.20;;
38779;SDS011;29273;49.962;9.768;2022-08-20T00:07:15;1.40;;;1.30;;
38779;SDS011;29273;49.962;9.768;2022-08-20T00:09:40;1.52;;;1.33;;
38779;SDS011;29273;49.962;9.768;2022-08-20T00:12:07;1.38;;;1.27;;
38779;SDS011;29273;49.962;9.768;2022-08-20T00:14:34;1.50;;;1.40;;
38779;SDS011;29273;49.962;9.768;2022-08-20T00:17:00;1.33;;;1.23;;
38779;SDS011;29273;49.962;9.768;2022-08-20T00:19:27;1.90;;;1.55;;
38779;SDS011;29273;49.962;9.768;2022-08-20T00:21:52;1.75;;;1.50;;
38779;SDS011;29273;49.962;9.768;2022-08-20T00:24:18;1.75;;;1.42;;
38779;SDS011;29273;49.962;9.768;2022-08-20T00:26:43;1.27;;;1.17;;
38779;SDS011;29273;49.962;9.768;2022-08-20T00:29:09;1.70;;;1.30;;
38779;SDS011;29273;49.962;9.768;2022-08-20T00:31:34;2.10;;;1.40;;
38779;SDS011;29273;49.962;9.768;2022-08-20T00:34:00;1.52;;;1.42;;
38779;SDS011;29273;49.962;9.768;2022-08-20T00:36:25;1.40;;;1.30;;
38779;SDS011;29273;49.962;9.768;2022-08-20T00:38:51;1.83;;;1.38;;
38779;SDS011;29273;49.962;9.768;2022-08-20T00:41:21;1.50;;;1.38;;
38779;SDS011;29273;49.962;9.768;2022-08-20T00:43:50;1.50;;;1.40;;
38779;SDS011;29273;49.962;9.768;2022-08-20T00:46:28;1.40;;;1.30;;
38779;SDS011;29273;49.962;9.768;2022-08-20T00:48:54;1.50;;;1.25;;
38779;SDS011;29273;49.962;9.768;2022-08-20T00:54:10;1.35;;;1.20;;
38779;SDS011;29273;49.962;9.768;2022-08-20T00:56:44;3.97;;;1.38;;
38779;SDS011;29273;49.962;9.768;2022-08-20T00:59:14;1.70;;;1.60;;
38779;SDS011;29273;49.962;9.768;2022-08-20T01:01:43;1.40;;;1.30;;
38779;SDS011;29273;49.962;9.768;2022-08-20T01:04:10;1.30;;;1.20;;
38779;SDS011;29273;49.962;9.768;2022-08-20T01:06:36;1.40;;;1.30;;
38779;SDS011;29273;49.962;9.768;2022-08-20T01:09:03;1.50;;;1.40;;
38779;SDS011;29273;49.962;9.768;2022-08-20T01:11:29;2.05;;;1.50;;
38779;SDS011;29273;49.962;9.768;2022-08-20T01:14:05;1.30;;;1.20;;
38779;SDS011;29273;49.962;9.768;2022-08-20T01:17:01;1.65;;;1.55;;
38779;SDS011;29273;49.962;9.768;2022-08-20T01:19:31;2.33;;;1.40;;
38779;SDS011;29273;49.962;9.768;2022-08-20T01:22:00;2.00;;;1.40;;
38779;SDS011;29273;49.962;9.768;2022-08-20T01:24:47;1.67;;;1.40;;
38779;SDS011;29273;49.962;9.768;2022-08-20T01:27:20;1.40;;;1.30;;
38779;SDS011;29273;49.962;9.768;2022-08-20T01:29:46;1.52;;;1.27;;
38779;SDS011;29273;49.962;9.768;2022-08-20T01:32:13;1.38;;;1.27;;
38779;SDS011;29273;49.962;9.768;2022-08-20T01:34:38;1.55;;;1.40;;
38779;SDS011;29273;49.962;9.768;2022-08-20T01:37:04;1.58;;;1.48;;
38779;SDS011;29273;49.962;9.768;2022-08-20T01:39:31;2.38;;;1.60;;
38779;SDS011;29273;49.962;9.768;2022-08-20T01:42:10;1.30;;;1.20;;
38779;SDS011;29273;49.962;9.768;2022-08-20T01:44:40;1.70;;;1.35;;
38779;SDS011;29273;49.962;9.768;2022-08-20T01:47:15;2.63;;;1.48;;
38779;SDS011;29273;49.962;9.768;2022-08-20T01:49:46;1.60;;;1.50;;
38779;SDS011;29273;49.962;9.768;2022-08-20T01:52:50;2.35;;;1.40;;
38779;SDS011;29273;49.962;9.768;2022-08-20T01:55:10;1.50;;;1.40;;
38779;SDS011;29273;49.962;9.768;2022-08-20T01:57:36;1.58;;;1.48;;
38779;SDS011;29273;49.962;9.768;2022-08-20T02:00:08;1.60;;;1.50;;
38779;SDS011;29273;49.962;9.768;2022-08-20T02:02:37;1.30;;;1.20;;
38779;SDS011;29273;49.962;9.768;2022-08-20T02:05:04;1.70;;;1.60;;
38779;SDS011;29273;49.962;9.768;2022-08-20T02:07:29;1.60;;;1.50;;
38779;SDS011;29273;49.962;9.768;2022-08-20T02:09:56;1.58;;;1.48;;
38779;SDS011;29273;49.962;9.768;2022-08-20T02:12:22;1.55;;;1.45;;
38779;SDS011;29273;49.962;9.768;2022-08-20T02:14:49;1.63;;;1.52;;
38779;SDS011;29273;49.962;9.768;2022-08-20T02:17:16;1.50;;;1.40;;
38779;SDS011;29273;49.962;9.768;2022-08-20T02:19:48;1.80;;;1.60;;
38779;SDS011;29273;49.962;9.768;2022-08-20T02:22:22;1.70;;;1.60;;
38779;SDS011;29273;49.962;9.768;2022-08-20T02:24:54;1.45;;;1.35;;
38779;SDS011;29273;49.962;9.768;2022-08-20T02:27:19;1.70;;;1.60;;
38779;SDS011;29273;49.962;9.768;2022-08-20T02:29:48;1.67;;;1.58;;
38779;SDS011;29273;49.962;9.768;2022-08-20T02:32:14;1.60;;;1.45;;
38779;SDS011;29273;49.962;9.768;2022-08-20T02:34:39;2.42;;;1.83;;
38779;SDS011;29273;49.962;9.768;2022-08-20T02:37:05;1.80;;;1.70;;
38779;SDS011;29273;49.962;9.768;2022-08-20T02:39:31;1.60;;;1.50;;
38779;SDS011;29273;49.962;9.768;2022-08-20T02:41:57;1.95;;;1.85;;
38779;SDS011;29273;49.962;9.768;2022-08-20T02:44:23;1.70;;;1.60;;
38779;SDS011;29273;49.962;9.768;2022-08-20T02:46:49;1.85;;;1.70;;
38779;SDS011;29273;49.962;9.768;2022-08-20T02:49:15;1.75;;;1.48;;
38779;SDS011;29273;49.962;9.768;2022-08-20T02:51:42;1.88;;;1.70;;
38779;SDS011;29273;49.962;9.768;2022-08-20T02:54:08;1.73;;;1.60;;
38779;SDS011;29273;49.962;9.768;2022-08-20T02:56:34;1.73;;;1.52;;
38779;SDS011;29273;49.962;9.768;2022-08-20T02:59:00;1.95;;;1.60;;
38779;SDS011;29273;49.962;9.768;2022-08-20T03:01:25;1.75;;;1.60;;
38779;SDS011;29273;49.962;9.768;2022-08-20T03:03:51;1.85;;;1.65;;
38779;SDS011;29273;49.962;9.768;2022-08-20T03:06:17;2.20;;;1.83;;
38779;SDS011;29273;49.962;9.768;2022-08-20T03:08:42;1.70;;;1.58;;
38779;SDS011;29273;49.962;9.768;2022-08-20T03:11:08;1.52;;;1.40;;
38779;SDS011;29273;49.962;9.768;2022-08-20T03:13:34;2.10;;;1.73;;
38779;SDS011;29273;49.962;9.768;2022-08-20T03:16:02;1.67;;;1.58;;
38779;SDS011;29273;49.962;9.768;2022-08-20T03:18:29;2.53;;;1.60;;
38779;SDS011;29273;49.962;9.768;2022-08-20T03:20:58;1.90;;;1.80;;
38779;SDS011;29273;49.962;9.768;2022-08-20T03:23:24;1.65;;;1.55;;
38779;SDS011;29273;49.962;9.768;2022-08-20T03:25:50;1.98;;;1.77;;
38779;SDS011;29273;49.962;9.768;2022-08-20T03:28:16;1.95;;;1.80;;
38779;SDS011;29273;49.962;9.768;2022-08-20T03:30:42;1.73;;;1.52;;
38779;SDS011;29273;49.962;9.768;2022-08-20T03:33:08;1.80;;;1.70;;
38779;SDS011;29273;49.962;9.768;2022-08-20T03:35:34;1.60;;;1.50;;
38779;SDS011;29273;49.962;9.768;2022-08-20T03:38:00;2.10;;;1.90;;
38779;SDS011;29273;49.962;9.768;2022-08-20T03:40:30;2.03;;;1.77;;
38779;SDS011;29273;49.962;9.768;2022-08-20T03:42:57;1.80;;;1.70;;
38779;SDS011;29273;49.962;9.768;2022-08-20T03:45:24;2.22;;;1.70;;
38779;SDS011;29273;49.962;9.768;2022-08-20T03:47:51;1.80;;;1.70;;
38779;SDS011;29273;49.962;9.768;2022-08-20T03:50:19;1.58;;;1.48;;
38779;SDS011;29273;49.962;9.768;2022-08-20T03:52:46;1.92;;;1.80;;
38779;SDS011;29273;49.962;9.768;2022-08-20T03:55:11;1.85;;;1.75;;
38779;SDS011;29273;49.962;9.768;2022-08-20T03:57:47;1.88;;;1.77;;
38779;SDS011;29273;49.962;9.768;2022-08-20T04:00:59;1.98;;;1.77;;
38779;SDS011;29273;49.962;9.768;2022-08-20T04:03:08;2.15;;;1.63;;
38779;SDS011;29273;49.962;9.768;2022-08-20T04:05:35;1.90;;;1.80;;
38779;SDS011;29273;49.962;9.768;2022-08-20T04:08:09;2.05;;;1.90;;
38779;SDS011;29273;49.962;9.768;2022-08-20T04:10:37;2.10;;;1.88;;
38779;SDS011;29273;49.962;9.768;2022-08-20T04:13:05;2.30;;;2.10;;
38779;SDS011;29273;49.962;9.768;2022-08-20T04:15:31;2.28;;;2.08;;
38779;SDS011;29273;49.962;9.768;2022-08-20T04:17:59;1.80;;;1.70;;
38779;SDS011;29273;49.962;9.768;2022-08-20T04:20:25;2.13;;;1.92;;
38779;SDS011;29273;49.962;9.768;2022-08-20T04:22:52;2.20;;;1.90;;
38779;SDS011;29273;49.962;9.768;2022-08-20T04:25:19;2.17;;;1.95;;
38779;SDS011;29273;49.962;9.768;2022-08-20T04:27:46;1.90;;;1.75;;
38779;SDS011;29273;49.962;9.768;2022-08-20T04:30:14;2.20;;;2.00;;
38779;SDS011;29273;49.962;9.768;2022-08-20T04:32:42;2.20;;;2.00;;
38779;SDS011;29273;49.962;9.768;2022-08-20T04:35:09;2.47;;;2.28;;
38779;SDS011;29273;49.962;9.768;2022-08-20T04:37:38;1.98;;;1.88;;
38779;SDS011;29273;49.962;9.768;2022-08-20T04:40:04;2.17;;;1.98;;
38779;SDS011;29273;49.962;9.768;2022-08-20T04:42:52;2.13;;;2.00;;
38779;SDS011;29273;49.962;9.768;2022-08-20T04:45:17;1.88;;;1.77;;
38779;SDS011;29273;49.962;9.768;2022-08-20T04:47:43;2.20;;;2.00;;
38779;SDS011;29273;49.962;9.768;2022-08-20T04:50:09;2.17;;;1.95;;
38779;SDS011;29273;49.962;9.768;2022-08-20T04:52:35;4.70;;;2.38;;
38779;SDS011;29273;49.962;9.768;2022-08-20T04:55:02;2.33;;;1.92;;
38779;SDS011;29273;49.962;9.768;2022-08-20T04:57:29;1.95;;;1.85;;
38779;SDS011;29273;49.962;9.768;2022-08-20T04:59:55;2.45;;;2.05;;
38779;SDS011;29273;49.962;9.768;2022-08-20T05:02:21;2.20;;;2.00;;
38779;SDS011;29273;49.962;9.768;2022-08-20T05:04:46;2.67;;;2.30;;
38779;SDS011;29273;49.962;9.768;2022-08-20T05:07:15;2.60;;;2.35;;
38779;SDS011;29273;49.962;9.768;2022-08-20T05:09:45;2.72;;;2.42;;
38779;SDS011;29273;49.962;9.768;2022-08-20T05:12:11;2.25;;;2.05;;
38779;SDS011;29273;49.962;9.768;2022-08-20T05:14:39;2.30;;;2.10;;
38779;SDS011;29273;49.962;9.768;2022-08-20T05:17:06;2.33;;;2.13;;
38779;SDS011;29273;49.962;9.768;2022-08-20T05:19:32;2.40;;;2.20;;
38779;SDS011;29273;49.962;9.768;2022-08-20T05:22:00;2.83;;;2.33;;
38779;SDS011;29273;49.962;9.768;2022-08-20T05:24:26;2.30;;;2.10;;
38779;SDS011;29273;49.962;9.768;2022-08-20T05:26:51;2.50;;;2.30;;
38779;SDS011;29273;49.962;9.768;2022-08-20T05:29:19;2.60;;;2.30;;
38779;SDS011;29273;49.962;9.768;2022-08-20T05:31:46;2.33;;;2.13;;
38779;SDS011;29273;49.962;9.768;2022-08-20T05:34:11;2.47;;;2.28;;
38779;SDS011;29273;49.962;9.768;2022-08-20T05:36:44;2.83;;;2.45;;
38779;SDS011;29273;49.962;9.768;2022-08-20T05:39:11;2.40;;;2.20;;
38779;SDS011;29273;49.962;9.768;2022-08-20T05:41:38;2.65;;;2.42;;
38779;SDS011;29273;49.962;9.768;2022-08-20T05:44:04;2.35;;;2.15;;
38779;SDS011;29273;49.962;9.768;2022-08-20T05:46:33;3.22;;;2.30;;
38779;SDS011;29273;49.962;9.768;2022-08-20T05:48:59;2.97;;;2.28;;
38779;SDS011;29273;49.962;9.768;2022-08-20T05:51:26;2.35;;;2.15;;
38779;SDS011;29273;49.962;9.768;2022-08-20T05:53:52;2.42;;;2.22;;
38779;SDS011;29273;49.962;9.768;2022-08-20T05:56:17;2.10;;;2.00;;
38779;SDS011;29273;49.962;9.768;2022-08-20T05:58:43;2.30;;;2.10;;
38779;SDS011;29273;49.962;9.768;2022-08-20T06:01:08;2.90;;;2.58;;
38779;SDS011;29273;49.962;9.768;2022-08-20T06:03:34;2.60;;;2.40;;
38779;SDS011;29273;49.962;9.768;2022-08-20T06:06:18;2.58;;;2.38;;
38779;SDS011;29273;49.962;9.768;2022-08-20T06:08:44;2.88;;;2.47;;
38779;SDS011;29273;49.962;9.768;2022-08-20T06:11:10;2.45;;;2.25;;
38779;SDS011;29273;49.962;9.768;2022-08-20T06:13:35;2.63;;;2.10;;
38779;SDS011;29273;49.962;9.768;2022-08-20T06:16:00;2.55;;;2.08;;
38779;SDS011;29273;49.962;9.768;2022-08-20T06:18:26;2.38;;;2.17;;
38779;SDS011;29273;49.962;9.768;2022-08-20T06:20:51;2.67;;;2.30;;
38779;SDS011;29273;49.962;9.768;2022-08-20T06:23:17;3.58;;;2.42;;
38779;SDS011;29273;49.962;9.768;2022-08-20T06:25:44;2.38;;;2.08;;
38779;SDS011;29273;49.962;9.768;2022-08-20T06:28:11;2.65;;;2.38;;
38779;SDS011;29273;49.962;9.768;2022-08-20T06:30:38;2.45;;;2.25;;
38779;SDS011;29273;49.962;9.768;2022-08-20T06:33:04;2.50;;;2.30;;
38779;SDS011;29273;49.962;9.768;2022-08-20T06:35:29;2.33;;;2.13;;
38779;SDS011;29273;49.962;9.768;2022-08-20T06:37:55;2.45;;;2.25;;
38779;SDS011;29273;49.962;9.768;2022-08-20T06:40:25;2.80;;;2.60;;
38779;SDS011;29273;49.962;9.768;2022-08-20T06:42:52;3.13;;;2.10;;
38779;SDS011;29273;49.962;9.768;2022-08-20T06:45:20;2.25;;;2.05;;
38779;SDS011;29273;49.962;9.768;2022-08-20T06:47:51;2.95;;;2.70;;
38779;SDS011;29273;49.962;9.768;2022-08-20T06:50:20;2.30;;;2.10;;
38779;SDS011;29273;49.962;9.768;2022-08-20T06:52:48;2.67;;;2.40;;
38779;SDS011;29273;49.962;9.768;2022-08-20T06:55:14;2.65;;;2.45;;
38779;SDS011;29273;49.962;9.768;2022-08-20T06:57:40;3.03;;;2.53;;
38779;SDS011;29273;49.962;9.768;2022-08-20T07:00:09;2.40;;;2.08;;
38779;SDS011;29273;49.962;9.768;2022-08-20T07:02:38;2.55;;;2.35;;
38779;SDS011;29273;49.962;9.768;2022-08-20T07:05:04;2.28;;;2.08;;
38779;SDS011;29273;49.962;9.768;2022-08-20T07:07:30;2.53;;;2.08;;
38779;SDS011;29273;49.962;9.768;2022-08-20T07:10:00;2.25;;;2.05;;
38779;SDS011;29273;49.962;9.768;2022-08-20T07:14:54;2.55;;;1.90;;
38779;SDS011;29273;49.962;9.768;2022-08-20T07:17:19;2.65;;;2.15;;
38779;SDS011;29273;49.962;9.768;2022-08-20T07:19:45;2.08;;;1.85;;
38779;SDS011;29273;49.962;9.768;2022-08-20T07:22:10;2.05;;;1.88;;
38779;SDS011;29273;49.962;9.768;2022-08-20T07:24:38;2.33;;;1.70;;
38779;SDS011;29273;49.962;9.768;2022-08-20T07:27:04;2.33;;;1.88;;
38779;SDS011;29273;49.962;9.768;2022-08-20T07:29:30;2.20;;;2.00;;
38779;SDS011;29273;49.962;9.768;2022-08-20T07:32:16;1.95;;;1.85;;
38779;SDS011;29273;49.962;9.768;2022-08-20T07:35:01;2.40;;;1.98;;
38779;SDS011;29273;49.962;9.768;2022-08-20T07:37:38;2.47;;;2.10;;
38779;SDS011;29273;49.962;9.768;2022-08-20T07:40:06;1.90;;;1.80;;
38779;SDS011;29273;49.962;9.768;2022-08-20T07:42:35;1.80;;;1.70;;
38779;SDS011;29273;49.962;9.768;2022-08-20T07:45:10;2.13;;;1.75;;
38779;SDS011;29273;49.962;9.768;2022-08-20T07:47:41;1.92;;;1.83;;
38779;SDS011;29273;49.962;9.768;2022-08-20T07:50:08;2.20;;;2.00;;
38779;SDS011;29273;49.962;9.768;2022-08-20T07:52:35;2.35;;;2.15;;
38779;SDS011;29273;49.962;9.768;2022-08-20T07:55:02;2.60;;;2.40;;
38779;SDS011;29273;49.962;9.768;2022-08-20T07:57:29;2.30;;;2.10;;
38779;SDS011;29273;49.962;9.768;2022-08-20T07:59:55;2.47;;;2.28;;
38779;SDS011;29273;49.962;9.768;2022-08-20T08:02:24;2.33;;;2.13;;
38779;SDS011;29273;49.962;9.768;2022-08-20T08:04:52;2.40;;;2.20;;
38779;SDS011;29273;49.962;9.768;2022-08-20T08:07:19;2.03;;;1.92;;
38779;SDS011;29273;49.962;9.768;2022-08-20T08:09:46;2.17;;;2.03;;
38779;SDS011;29273;49.962;9.768;2022-08-20T08:12:13;2.10;;;2.00;;
38779;SDS011;29273;49.962;9.768;2022-08-20T08:14:39;3.20;;;2.35;;
38779;SDS011;29273;49.962;9.768;2022-08-20T08:17:07;2.63;;;2.42;;
38779;SDS011;29273;49.962;9.768;2022-08-20T08:19:38;3.10;;;2.80;;
38779;SDS011;29273;49.962;9.768;2022-08-20T08:22:09;2.47;;;2.28;;
38779;SDS011;29273;49.962;9.768;2022-08-20T08:24:39;3.13;;;2.90;;
38779;SDS011;29273;49.962;9.768;2022-08-20T08:27:06;3.33;;;2.65;;
38779;SDS011;29273;49.962;9.768;2022-08-20T08:29:33;3.17;;;2.90;;
38779;SDS011;29273;49.962;9.768;2022-08-20T08:32:00;3.58;;;3.22;;
38779;SDS011;29273;49.962;9.768;2022-08-20T08:34:26;2.60;;;2.40;;
38779;SDS011;29273;49.962;9.768;2022-08-20T08:36:51;2.65;;;2.45;;
38779;SDS011;29273;49.962;9.768;2022-08-20T08:39:17;2.97;;;2.78;;
38779;SDS011;29273;49.962;9.768;2022-08-20T08:41:47;2.90;;;2.70;;
38779;SDS011;29273;49.962;9.768;2022-08-20T08:44:25;2.75;;;2.55;;
38779;SDS011;29273;49.962;9.768;2022-08-20T08:46:59;2.60;;;2.40;;
38779;SDS011;29273;49.962;9.768;2022-08-20T08:49:30;2.30;;;2.20;;
38779;SDS011;29273;49.962;9.768;2022-08-20T08:52:02;2.42;;;2.22;;
38779;SDS011;29273;49.962;9.768;2022-08-20T08:54:29;2.60;;;2.40;;
38779;SDS011;29273;49.962;9.768;2022-08-20T08:56:57;2.70;;;2.50;;
38779;SDS011;29273;49.962;9.768;2022-08-20T08:59:24;2.63;;;2.42;;
38779;SDS011;29273;49.962;9.768;2022-08-20T09:01:56;2.43;;;2.23;;
38779;SDS011;29273;49.962;9.768;2022-08-20T09:04:41;2.80;;;2.60;;
38779;SDS011;29273;49.962;9.768;2022-08-20T09:07:08;2.63;;;2.42;;
38779;SDS011;29273;49.962;9.768;2022-08-20T09:09:39;2.60;;;2.38;;
38779;SDS011;29273;49.962;9.768;2022-08-20T09:12:11;2.50;;;2.30;;
38779;SDS011;29273;49.962;9.768;2022-08-20T09:14:39;2.35;;;2.15;;
38779;SDS011;29273;49.962;9.768;2022-08-20T09:17:05;2.28;;;2.10;;
38779;SDS011;29273;49.962;9.768;2022-08-20T09:19:31;2.17;;;1.98;;
38779;SDS011;29273;49.962;9.768;2022-08-20T09:21:57;2.33;;;2.20;;
38779;SDS011;29273;49.962;9.768;2022-08-20T09:24:23;2.50;;;2.30;;
38779;SDS011;29273;49.962;9.768;2022-08-20T09:26:49;2.28;;;2.15;;
38779;SDS011;29273;49.962;9.768;2022-08-20T09:29:15;2.08;;;1.98;;
38779;SDS011;29273;49.962;9.768;2022-08-20T09:31:42;1.88;;;1.77;;
38779;SDS011;29273;49.962;9.768;2022-08-20T09:34:07;1.65;;;1.55;;
38779;SDS011;29273;49.962;9.768;2022-08-20T09:36:33;1.80;;;1.70;;
38779;SDS011;29273;49.962;9.768;2022-08-20T09:38:59;1.60;;;1.50;;
38779;SDS011;29273;49.962;9.768;2022-08-20T09:41:25;1.70;;;1.60;;
38779;SDS011;29273;49.962;9.768;2022-08-20T09:43:51;1.98;;;1.77;;
38779;SDS011;29273;49.962;9.768;2022-08-20T09:46:16;2.33;;;1.67;;
38779;SDS011;29273;49.962;9.768;2022-08-20T09:48:42;1.90;;;1.80;;
38779;SDS011;29273;49.962;9.768;2022-08-20T09:51:07;2.00;;;1.90;;
38779;SDS011;29273;49.962;9.768;2022-08-20T09:53:33;2.15;;;1.65;;
38779;SDS011;29273;49.962;9.768;2022-08-20T09:55:58;1.55;;;1.45;;
38779;SDS011;29273;49.962;9.768;2022-08-20T10:01:00;1.80;;;1.70;;
38779;SDS011;29273;49.962;9.768;2022-08-20T10:03:31;1.73;;;1.63;;
38779;SDS011;29273;49.962;9.768;2022-08-20T10:05:57;2.20;;;2.00;;
38779;SDS011;29273;49.962;9.768;2022-08-20T10:08:24;2.42;;;1.77;;
38779;SDS011;29273;49.962;9.768;2022-08-20T10:10:50;1.83;;;1.70;;
38779;SDS011;29273;49.962;9.768;2022-08-20T10:13:16;1.60;;;1.50;;
38779;SDS011;29273;49.962;9.768;2022-08-20T10:15:41;1.73;;;1.63;;
38779;SDS011;29273;49.962;9.768;2022-08-20T10:18:07;2.05;;;1.38;;
38779;SDS011;29273;49.962;9.768;2022-08-20T10:20:33;1.52;;;1.42;;
38779;SDS011;29273;49.962;9.768;2022-08-20T10:22:59;1.85;;;1.75;;
38779;SDS011;29273;49.962;9.768;2022-08-20T10:25:25;1.70;;;1.60;;
38779;SDS011;29273;49.962;9.768;2022-08-20T10:27:50;1.80;;;1.70;;
38779;SDS011;29273;49.962;9.768;2022-08-20T10:30:16;1.50;;;1.40;;
38779;SDS011;29273;49.962;9.768;2022-08-20T10:32:42;1.55;;;1.45;;
38779;SDS011;29273;49.962;9.768;2022-08-20T10:35:07;1.52;;;1.42;;
38779;SDS011;29273;49.962;9.768;2022-08-20T10:37:33;1.42;;;1.33;;
38779;SDS011;29273;49.962;9.768;2022-08-20T10:40:00;1.50;;;1.40;;
38779;SDS011;29273;49.962;9.768;2022-08-20T10:42:26;1.40;;;1.27;;
38779;SDS011;29273;49.962;9.768;2022-08-20T10:44:51;1.65;;;1.55;;
38779;SDS011;29273;49.962;9.768;2022-08-20T10:47:23;1.48;;;1.38;;
38779;SDS011;29273;49.962;9.768;2022-08-20T10:49:54;1.70;;;1.60;;
38779;SDS011;29273;49.962;9.768;2022-08-20T10:52:21;1.50;;;1.40;;
38779;SDS011;29273;49.962;9.768;2022-08-20T10:54:47;1.40;;;1.30;;
38779;SDS011;29273;49.962;9.768;2022-08-20T10:57:18;1.38;;;1.27;;
38779;SDS011;29273;49.962;9.768;2022-08-20T11:02:12;1.40;;;1.30;;
38779;SDS011;29273;49.962;9.768;2022-08-20T11:04:37;2.35;;;2.15;;
38779;SDS011;29273;49.962;9.768;2022-08-20T11:07:13;3.30;;;3.00;;
38779;SDS011;29273;49.962;9.768;2022-08-20T11:09:41;2.28;;;2.03;;
38779;SDS011;29273;49.962;9.768;2022-08-20T11:12:07;2.30;;;2.10;;
38779;SDS011;29273;49.962;9.768;2022-08-20T11:14:33;2.13;;;1.95;;
38779;SDS011;29273;49.962;9.768;2022-08-20T11:17:00;2.20;;;2.00;;
38779;SDS011;29273;49.962;9.768;2022-08-20T11:19:26;2.00;;;1.90;;
38779;SDS011;29273;49.962;9.768;2022-08-20T11:21:51;2.10;;;1.95;;
38779;SDS011;29273;49.962;9.768;2022-08-20T11:24:17;2.35;;;2.10;;
38779;SDS011;29273;49.962;9.768;2022-08-20T11:26:44;2.22;;;2.03;;
38779;SDS011;29273;49.962;9.768;2022-08-20T11:29:11;2.00;;;1.90;;
38779;SDS011;29273;49.962;9.768;2022-08-20T11:31:37;2.10;;;1.90;;
38779;SDS011;29273;49.962;9.768;2022-08-20T11:34:03;1.77;;;1.67;;
38779;SDS011;29273;49.962;9.768;2022-08-20T11:36:28;1.90;;;1.80;;
38779;SDS011;29273;49.962;9.768;2022-08-20T11:38:54;2.25;;;2.00;;
38779;SDS011;29273;49.962;9.768;2022-08-20T11:41:19;1.92;;;1.83;;
38779;SDS011;29273;49.962;9.768;2022-08-20T11:43:45;1.58;;;1.48;;
38779;SDS011;29273;49.962;9.768;2022-08-20T11:46:10;2.05;;;1.90;;
38779;SDS011;29273;49.962;9.768;2022-08-20T11:48:36;1.73;;;1.63;;
38779;SDS011;29273;49.962;9.768;2022-08-20T11:51:01;1.92;;;1.83;;
38779;SDS011;29273;49.962;9.768;2022-08-20T11:53:28;1.63;;;1.48;;
38779;SDS011;29273;49.962;9.768;2022-08-20T11:55:53;1.70;;;1.60;;
38779;SDS011;29273;49.962;9.768;2022-08-20T11:58:18;1.60;;;1.50;;
38779;SDS011;29273;49.962;9.768;2022-08-20T12:00:44;1.50;;;1.40;;
38779;SDS011;29273;49.962;9.768;2022-08-20T12:03:10;1.33;;;1.23;;
38779;SDS011;29273;49.962;9.768;2022-08-20T12:05:36;1.30;;;1.20;;
38779;SDS011;29273;49.962;9.768;2022-08-20T12:08:02;1.55;;;1.45;;
38779;SDS011;29273;49.962;9.768;2022-08-20T12:10:29;1.30;;;1.20;;
38779;SDS011;29273;49.962;9.768;2022-08-20T12:12:54;1.50;;;1.40;;
38779;SDS011;29273;49.962;9.768;2022-08-20T12:15:20;1.40;;;1.30;;
38779;SDS011;29273;49.962;9.768;2022-08-20T12:17:45;1.40;;;1.30;;
38779;SDS011;29273;49.962;9.768;2022-08-20T12:20:12;1.35;;;1.25;;
38779;SDS011;29273;49.962;9.768;2022-08-20T12:22:39;1.45;;;1.35;;
38779;SDS011;29273;49.962;9.768;2022-08-20T12:25:06;1.40;;;1.30;;
38779;SDS011;29273;49.962;9.768;2022-08-20T12:27:33;1.67;;;1.58;;
38779;SDS011;29273;49.962;9.768;2022-08-20T12:30:01;1.70;;;1.60;;
38779;SDS011;29273;49.962;9.768;2022-08-20T12:32:30;1.48;;;1.38;;
38779;SDS011;29273;49.962;9.768;2022-08-20T12:34:56;2.38;;;1.48;;
38779;SDS011;29273;49.962;9.768;2022-08-20T12:37:23;1.60;;;1.50;;
38779;SDS011;29273;49.962;9.768;2022-08-20T12:39:51;1.45;;;1.35;;
38779;SDS011;29273;49.962;9.768;2022-08-20T12:42:19;1.45;;;1.35;;
38779;SDS011;29273;49.962;9.768;2022-08-20T12:44:45;1.60;;;1.50;;
38779;SDS011;29273;49.962;9.768;2022-08-20T12:49:39;1.60;;;1.50;;
38779;SDS011;29273;49.962;9.768;2022-08-20T12:52:07;1.20;;;1.10;;
38779;SDS011;29273;49.962;9.768;2022-08-20T12:54:33;1.10;;;1.10;;
38779;SDS011;29273;49.962;9.768;2022-08-20T12:56:59;1.30;;;1.08;;
38779;SDS011;29273;49.962;9.768;2022-08-20T12:59:24;0.98;;;0.98;;
38779;SDS011;29273;49.962;9.768;2022-08-20T13:01:50;1.33;;;1.10;;
38779;SDS011;29273;49.962;9.768;2022-08-20T13:04:17;1.95;;;1.10;;
38779;SDS011;29273;49.962;9.768;2022-08-20T13:06:43;1.20;;;1.10;;
38779;SDS011;29273;49.962;9.768;2022-08-20T13:09:09;1.00;;;1.00;;
38779;SDS011;29273;49.962;9.768;2022-08-20T13:11:35;1.00;;;1.00;;
38779;SDS011;29273;49.962;9.768;2022-08-20T13:14:01;1.10;;;1.10;;
38779;SDS011;29273;49.962;9.768;2022-08-20T13:16:26;1.05;;;1.00;;
38779;SDS011;29273;49.962;9.768;2022-08-20T13:18:52;0.80;;;0.80;;
38779;SDS011;29273;49.962;9.768;2022-08-20T13:21:17;1.05;;;1.00;;
38779;SDS011;29273;49.962;9.768;2022-08-20T13:23:43;0.90;;;0.90;;
38779;SDS011;29273;49.962;9.768;2022-08-20T13:26:08;1.15;;;0.90;;
38779;SDS011;29273;49.962;9.768;2022-08-20T13:28:34;1.10;;;1.00;;
38779;SDS011;29273;49.962;9.768;2022-08-20T13:30:59;0.80;;;0.80;;
38779;SDS011;29273;49.962;9.768;2022-08-20T13:33:26;0.70;;;0.70;;
38779;SDS011;29273;49.962;9.768;2022-08-20T13:35:53;0.70;;;0.60;;
38779;SDS011;29273;49.962;9.768;2022-08-20T13:38:19;0.80;;;0.80;;
38779;SDS011;29273;49.962;9.768;2022-08-20T13:40:45;0.90;;;0.65;;
38779;SDS011;29273;49.962;9.768;2022-08-20T13:43:11;0.80;;;0.80;;
38779;SDS011;29273;49.962;9.768;2022-08-20T13:45:36;0.63;;;0.63;;
38779;SDS011;29273;49.962;9.768;2022-08-20T13:48:02;0.70;;;0.70;;
38779;SDS011;29273;49.962;9.768;2022-08-20T13:50:28;0.70;;;0.70;;
38779;SDS011;29273;49.962;9.768;2022-08-20T13:52:54;0.60;;;0.60;;
38779;SDS011;29273;49.962;9.768;2022-08-20T13:55:20;0.60;;;0.60;;
38779;SDS011;29273;49.962;9.768;2022-08-20T13:57:47;0.50;;;0.50;;
38779;SDS011;29273;49.962;9.768;2022-08-20T14:00:15;0.52;;;0.52;;
38779;SDS011;29273;49.962;9.768;2022-08-20T14:02:43;0.50;;;0.50;;
38779;SDS011;29273;49.962;9.768;2022-08-20T14:05:10;0.52;;;0.52;;
38779;SDS011;29273;49.962;9.768;2022-08-20T14:07:36;0.70;;;0.70;;
38779;SDS011;29273;49.962;9.768;2022-08-20T14:10:06;0.82;;;0.60;;
38779;SDS011;29273;49.962;9.768;2022-08-20T14:12:35;0.60;;;0.60;;
38779;SDS011;29273;49.962;9.768;2022-08-20T14:15:00;0.65;;;0.65;;
38779;SDS011;29273;49.962;9.768;2022-08-20T14:17:27;1.33;;;0.80;;
38779;SDS011;29273;49.962;9.768;2022-08-20T14:19:57;0.70;;;0.70;;
38779;SDS011;29273;49.962;9.768;2022-08-20T14:22:24;0.82;;;0.82;;
38779;SDS011;29273;49.962;9.768;2022-08-20T14:24:50;0.95;;;0.70;;
38779;SDS011;29273;49.962;9.768;2022-08-20T14:27:17;0.60;;;0.50;;
38779;SDS011;29273;49.962;9.768;2022-08-20T14:29:44;0.63;;;0.63;;
38779;SDS011;29273;49.962;9.768;2022-08-20T14:32:11;0.63;;;0.60;;
38779;SDS011;29273;49.962;9.768;2022-08-20T14:34:37;0.55;;;0.55;;
38779;SDS011;29273;49.962;9.768;2022-08-20T14:42:00;0.50;;;0.50;;
38779;SDS011;29273;49.962;9.768;2022-08-20T14:44:26;0.50;;;0.47;;
38779;SDS011;29273;49.962;9.768;2022-08-20T14:46:53;0.73;;;0.70;;
38779;SDS011;29273;49.962;9.768;2022-08-20T14:49:20;0.60;;;0.60;;
38779;SDS011;29273;49.962;9.768;2022-08-20T14:51:45;0.70;;;0.70;;
38779;SDS011;29273;49.962;9.768;2022-08-20T14:54:11;0.70;;;0.70;;
38779;SDS011;29273;49.962;9.768;2022-08-20T14:56:37;0.70;;;0.70;;
38779;SDS011;29273;49.962;9.768;2022-08-20T14:59:02;0.65;;;0.63;;
38779;SDS011;29273;49.962;9.768;2022-08-20T15:01:28;0.70;;;0.70;;
38779;SDS011;29273;49.962;9.768;2022-08-20T15:03:53;0.65;;;0.65;;
38779;SDS011;29273;49.962;9.768;2022-08-20T15:06:19;1.20;;;1.00;;
38779;SDS011;29273;49.962;9.768;2022-08-20T15:08:44;0.60;;;0.60;;